CEB821 RPLL-RPUV
Flight info
| Callsign | CEB821 |
|---|---|
| Flight time | 0h 37m |
| Altitude | 25000 |
| Route | TIMON4V TIMON W15 RAGAY W15A NGA DCT |
| Aircraft | A20N/M-SDE2E3FGHIRWXY/LB1 |
Departure
| Time | 2026-05-07 05:56 |
|---|---|
| Airport | Ninoy Aquino International Airport (RPLL) |
Arrival
| Time | 2026-05-07 06:33 |
|---|---|
| Airport | Virac Airport (RPUV) |
| Time | Latitude | Longitude | Altitude | Speed | Heading |
|---|---|---|---|---|---|
| 2026-05-07 05:43 | 14.52243 | 121.00951 | 82 ft | 0 kts | 44° |
| 2026-05-07 05:47 | 14.52234 | 121.00942 | 81 ft | 2 kts | 44° |
| 2026-05-07 05:48 | 14.52223 | 121.00932 | 81 ft | 2 kts | 45° |
| 2026-05-07 05:48 | 14.52212 | 121.00921 | 81 ft | 2 kts | 44° |
| 2026-05-07 05:48 | 14.52201 | 121.00909 | 81 ft | 2 kts | 44° |
| 2026-05-07 05:48 | 14.52190 | 121.00898 | 81 ft | 2 kts | 45° |
| 2026-05-07 05:49 | 14.52179 | 121.00887 | 81 ft | 2 kts | 44° |
| 2026-05-07 05:49 | 14.52169 | 121.00877 | 81 ft | 0 kts | 45° |
| 2026-05-07 05:49 | 14.52157 | 121.00870 | 82 ft | 2 kts | 353° |
| 2026-05-07 05:49 | 14.52146 | 121.00875 | 81 ft | 1 kts | 307° |
| 2026-05-07 05:50 | 14.52142 | 121.00880 | 81 ft | 0 kts | 314° |
| 2026-05-07 05:50 | 14.52143 | 121.00879 | 81 ft | 0 kts | 314° |
| 2026-05-07 05:52 | 14.52152 | 121.00869 | 81 ft | 4 kts | 314° |
| 2026-05-07 05:52 | 14.52182 | 121.00838 | 82 ft | 6 kts | 315° |
| 2026-05-07 05:52 | 14.52219 | 121.00799 | 82 ft | 8 kts | 314° |
| 2026-05-07 05:52 | 14.52262 | 121.00755 | 81 ft | 9 kts | 316° |
| 2026-05-07 05:53 | 14.52313 | 121.00703 | 82 ft | 10 kts | 314° |
| 2026-05-07 05:53 | 14.52367 | 121.00646 | 82 ft | 11 kts | 314° |
| 2026-05-07 05:53 | 14.52426 | 121.00587 | 82 ft | 12 kts | 314° |
| 2026-05-07 05:53 | 14.52487 | 121.00523 | 82 ft | 11 kts | 315° |
| 2026-05-07 05:54 | 14.52497 | 121.00491 | 81 ft | 4 kts | 242° |
| 2026-05-07 05:54 | 14.52470 | 121.00459 | 82 ft | 7 kts | 225° |
| 2026-05-07 05:54 | 14.52428 | 121.00417 | 81 ft | 8 kts | 224° |
| 2026-05-07 05:54 | 14.52396 | 121.00388 | 81 ft | 3 kts | 202° |
| 2026-05-07 05:55 | 14.52373 | 121.00397 | 81 ft | 4 kts | 139° |
| 2026-05-07 05:55 | 14.52366 | 121.00403 | 81 ft | 0 kts | 135° |
| 2026-05-07 05:55 | 14.52359 | 121.00410 | 81 ft | 8 kts | 135° |
| 2026-05-07 05:55 | 14.52115 | 121.00661 | 82 ft | 87 kts | 134° |
| 2026-05-07 05:56 | 14.51518 | 121.01278 | 84 ft | 149 kts | 137° |
| 2026-05-07 05:56 | 14.50637 | 121.02150 | 634 ft | 157 kts | 134° |
| 2026-05-07 05:56 | 14.49785 | 121.03024 | 1376 ft | 157 kts | 130° |
| 2026-05-07 05:56 | 14.49026 | 121.03832 | 2059 ft | 150 kts | 129° |
| 2026-05-07 05:57 | 14.48275 | 121.04626 | 2335 ft | 161 kts | 130° |
| 2026-05-07 05:57 | 14.47457 | 121.05492 | 2602 ft | 176 kts | 130° |
| 2026-05-07 05:57 | 14.46582 | 121.06422 | 2916 ft | 189 kts | 131° |
| 2026-05-07 05:57 | 14.45605 | 121.07422 | 3279 ft | 201 kts | 133° |
| 2026-05-07 05:58 | 14.44571 | 121.08444 | 3660 ft | 213 kts | 133° |
| 2026-05-07 05:58 | 14.43545 | 121.09626 | 3910 ft | 232 kts | 120° |
| 2026-05-07 05:58 | 14.42909 | 121.11192 | 4272 ft | 246 kts | 101° |
| 2026-05-07 05:58 | 14.42583 | 121.12998 | 4675 ft | 262 kts | 98° |
| 2026-05-07 05:59 | 14.42294 | 121.14863 | 5347 ft | 266 kts | 97° |
| 2026-05-07 05:59 | 14.41997 | 121.16749 | 6031 ft | 271 kts | 99° |
| 2026-05-07 05:59 | 14.41654 | 121.18657 | 6807 ft | 272 kts | 99° |
| 2026-05-07 05:59 | 14.41297 | 121.20586 | 7540 ft | 275 kts | 100° |
| 2026-05-07 06:00 | 14.40854 | 121.22513 | 8220 ft | 280 kts | 108° |
| 2026-05-07 06:00 | 14.39988 | 121.24337 | 8908 ft | 285 kts | 122° |
| 2026-05-07 06:00 | 14.38815 | 121.25963 | 9584 ft | 289 kts | 126° |
| 2026-05-07 06:00 | 14.37549 | 121.27593 | 10252 ft | 292 kts | 127° |
| 2026-05-07 06:01 | 14.36687 | 121.28694 | 10570 ft | 300 kts | 127° |
| 2026-05-07 06:01 | 14.35806 | 121.29824 | 10770 ft | 311 kts | 127° |
| 2026-05-07 06:01 | 14.33933 | 121.32239 | 11121 ft | 333 kts | 127° |
| 2026-05-07 06:02 | 14.30385 | 121.36830 | 11775 ft | 366 kts | 127° |
| 2026-05-07 06:02 | 14.28793 | 121.38892 | 12265 ft | 372 kts | 127° |
| 2026-05-07 06:02 | 14.27174 | 121.40990 | 12858 ft | 374 kts | 127° |
| 2026-05-07 06:02 | 14.25567 | 121.43076 | 13388 ft | 377 kts | 127° |
| 2026-05-07 06:03 | 14.23918 | 121.45215 | 13911 ft | 381 kts | 127° |
| 2026-05-07 06:03 | 14.22278 | 121.47343 | 14407 ft | 384 kts | 127° |
| 2026-05-07 06:03 | 14.20591 | 121.49529 | 14887 ft | 387 kts | 127° |
| 2026-05-07 06:03 | 14.18912 | 121.51706 | 15402 ft | 390 kts | 127° |
| 2026-05-07 06:04 | 14.17238 | 121.53876 | 15855 ft | 393 kts | 127° |
| 2026-05-07 06:04 | 14.15530 | 121.56090 | 16326 ft | 396 kts | 127° |
| 2026-05-07 06:04 | 14.13811 | 121.58316 | 16770 ft | 398 kts | 127° |
| 2026-05-07 06:04 | 14.12079 | 121.60561 | 17196 ft | 401 kts | 127° |
| 2026-05-07 06:05 | 14.10544 | 121.62936 | 17607 ft | 402 kts | 116° |
| 2026-05-07 06:05 | 14.09443 | 121.65649 | 18039 ft | 404 kts | 106° |
| 2026-05-07 06:05 | 14.08837 | 121.68574 | 18483 ft | 405 kts | 98° |
| 2026-05-07 06:05 | 14.08429 | 121.71471 | 18852 ft | 408 kts | 97° |
| 2026-05-07 06:06 | 14.08041 | 121.74374 | 19244 ft | 411 kts | 97° |
| 2026-05-07 06:06 | 14.07646 | 121.77274 | 19657 ft | 414 kts | 97° |
| 2026-05-07 06:06 | 14.07233 | 121.80231 | 20028 ft | 416 kts | 97° |
| 2026-05-07 06:06 | 14.06820 | 121.83144 | 20439 ft | 418 kts | 97° |
| 2026-05-07 06:07 | 14.06395 | 121.86113 | 20952 ft | 416 kts | 97° |
| 2026-05-07 06:07 | 14.05972 | 121.89056 | 21472 ft | 415 kts | 97° |
| 2026-05-07 06:07 | 14.05452 | 121.91977 | 21944 ft | 415 kts | 103° |
| 2026-05-07 06:07 | 14.04630 | 121.94807 | 22455 ft | 415 kts | 109° |
| 2026-05-07 06:08 | 14.03516 | 121.97508 | 22997 ft | 414 kts | 115° |
| 2026-05-07 06:08 | 14.02211 | 122.00166 | 23528 ft | 413 kts | 116° |
| 2026-05-07 06:08 | 14.00880 | 122.02797 | 23966 ft | 415 kts | 116° |
| 2026-05-07 06:08 | 13.99560 | 122.05405 | 24349 ft | 418 kts | 116° |
| 2026-05-07 06:09 | 13.98221 | 122.08062 | 24729 ft | 420 kts | 116° |
| 2026-05-07 06:09 | 13.96875 | 122.10744 | 24833 ft | 422 kts | 116° |
| 2026-05-07 06:09 | 13.95533 | 122.13423 | 24835 ft | 422 kts | 116° |
| 2026-05-07 06:09 | 13.94175 | 122.16138 | 24838 ft | 422 kts | 116° |
| 2026-05-07 06:10 | 13.92839 | 122.18807 | 24840 ft | 422 kts | 116° |
| 2026-05-07 06:10 | 13.91500 | 122.21483 | 24841 ft | 422 kts | 116° |
| 2026-05-07 06:10 | 13.90153 | 122.24168 | 24841 ft | 422 kts | 116° |
| 2026-05-07 06:10 | 13.88763 | 122.26939 | 24845 ft | 422 kts | 116° |
| 2026-05-07 06:11 | 13.87429 | 122.29600 | 24845 ft | 422 kts | 116° |
| 2026-05-07 06:11 | 13.86086 | 122.32278 | 24846 ft | 421 kts | 116° |
| 2026-05-07 06:11 | 13.84743 | 122.34958 | 24848 ft | 421 kts | 116° |
| 2026-05-07 06:11 | 13.83398 | 122.37640 | 24848 ft | 421 kts | 116° |
| 2026-05-07 06:12 | 13.82060 | 122.40305 | 24848 ft | 421 kts | 116° |
| 2026-05-07 06:12 | 13.80706 | 122.43007 | 24848 ft | 422 kts | 116° |
| 2026-05-07 06:12 | 13.79359 | 122.45691 | 24846 ft | 422 kts | 116° |
| 2026-05-07 06:12 | 13.78006 | 122.48383 | 24845 ft | 422 kts | 116° |
| 2026-05-07 06:13 | 13.76670 | 122.51042 | 24843 ft | 422 kts | 116° |
| 2026-05-07 06:13 | 13.75316 | 122.53735 | 24842 ft | 422 kts | 116° |
| 2026-05-07 06:13 | 13.74039 | 122.56424 | 24839 ft | 421 kts | 112° |
| 2026-05-07 06:13 | 13.72967 | 122.59251 | 24837 ft | 421 kts | 107° |
| 2026-05-07 06:14 | 13.72160 | 122.62100 | 24838 ft | 420 kts | 102° |
| 2026-05-07 06:14 | 13.71507 | 122.65051 | 24837 ft | 420 kts | 102° |
| 2026-05-07 06:14 | 13.70884 | 122.68008 | 24834 ft | 420 kts | 101° |
| 2026-05-07 06:14 | 13.70266 | 122.70948 | 24832 ft | 420 kts | 101° |
| 2026-05-07 06:15 | 13.69649 | 122.73873 | 24657 ft | 421 kts | 102° |
| 2026-05-07 06:15 | 13.69023 | 122.76814 | 24157 ft | 419 kts | 101° |
| 2026-05-07 06:15 | 13.68392 | 122.79766 | 23555 ft | 417 kts | 101° |
| 2026-05-07 06:15 | 13.67769 | 122.82675 | 22938 ft | 416 kts | 101° |
| 2026-05-07 06:16 | 13.67147 | 122.85578 | 22302 ft | 416 kts | 101° |
| 2026-05-07 06:16 | 13.66507 | 122.88559 | 21655 ft | 416 kts | 101° |
| 2026-05-07 06:16 | 13.65880 | 122.91473 | 21012 ft | 415 kts | 101° |
| 2026-05-07 06:16 | 13.65246 | 122.94425 | 20331 ft | 416 kts | 101° |
| 2026-05-07 06:17 | 13.64604 | 122.97407 | 19621 ft | 417 kts | 101° |
| 2026-05-07 06:17 | 13.63922 | 123.00576 | 18989 ft | 413 kts | 101° |
| 2026-05-07 06:17 | 13.63289 | 123.03506 | 18504 ft | 408 kts | 101° |
| 2026-05-07 06:17 | 13.62679 | 123.06330 | 18005 ft | 403 kts | 101° |
| 2026-05-07 06:18 | 13.62076 | 123.09127 | 17471 ft | 400 kts | 101° |
| 2026-05-07 06:18 | 13.61476 | 123.11906 | 16933 ft | 398 kts | 101° |
| 2026-05-07 06:18 | 13.60884 | 123.14655 | 16407 ft | 395 kts | 101° |
| 2026-05-07 06:18 | 13.60291 | 123.17400 | 15909 ft | 391 kts | 101° |
| 2026-05-07 06:19 | 13.59701 | 123.20129 | 15425 ft | 387 kts | 102° |
| 2026-05-07 06:19 | 13.59128 | 123.22775 | 14942 ft | 384 kts | 102° |
| 2026-05-07 06:19 | 13.58591 | 123.25440 | 14465 ft | 380 kts | 99° |
| 2026-05-07 06:19 | 13.58209 | 123.28136 | 13986 ft | 376 kts | 96° |
| 2026-05-07 06:20 | 13.57995 | 123.30780 | 13524 ft | 372 kts | 93° |
| 2026-05-07 06:20 | 13.57842 | 123.33414 | 13074 ft | 368 kts | 93° |
| 2026-05-07 06:20 | 13.57696 | 123.36020 | 12597 ft | 365 kts | 93° |
| 2026-05-07 06:20 | 13.57551 | 123.38606 | 12108 ft | 362 kts | 93° |
| 2026-05-07 06:21 | 13.57405 | 123.41164 | 11638 ft | 359 kts | 93° |
| 2026-05-07 06:21 | 13.57265 | 123.43719 | 11195 ft | 354 kts | 93° |
| 2026-05-07 06:21 | 13.57130 | 123.46199 | 10792 ft | 348 kts | 93° |
| 2026-05-07 06:21 | 13.56990 | 123.48646 | 10484 ft | 339 kts | 93° |
| 2026-05-07 06:22 | 13.56850 | 123.51028 | 10348 ft | 325 kts | 93° |
| 2026-05-07 06:22 | 13.56588 | 123.55453 | 10152 ft | 296 kts | 93° |
| 2026-05-07 06:22 | 13.56465 | 123.57513 | 10072 ft | 282 kts | 93° |
| 2026-05-07 06:23 | 13.56346 | 123.59496 | 9980 ft | 272 kts | 93° |
| 2026-05-07 06:23 | 13.56229 | 123.61452 | 9606 ft | 272 kts | 93° |
| 2026-05-07 06:23 | 13.56115 | 123.63377 | 9247 ft | 272 kts | 93° |
| 2026-05-07 06:23 | 13.56000 | 123.65325 | 8876 ft | 271 kts | 94° |
| 2026-05-07 06:24 | 13.55884 | 123.67270 | 8537 ft | 270 kts | 94° |
| 2026-05-07 06:24 | 13.55770 | 123.69192 | 8192 ft | 268 kts | 94° |
| 2026-05-07 06:24 | 13.55656 | 123.71094 | 7853 ft | 267 kts | 94° |
| 2026-05-07 06:24 | 13.55542 | 123.73010 | 7532 ft | 264 kts | 93° |
| 2026-05-07 06:25 | 13.55429 | 123.74894 | 7195 ft | 263 kts | 93° |
| 2026-05-07 06:25 | 13.55318 | 123.76759 | 6873 ft | 260 kts | 93° |
| 2026-05-07 06:25 | 13.55208 | 123.78617 | 6560 ft | 258 kts | 93° |
| 2026-05-07 06:25 | 13.55099 | 123.80460 | 6246 ft | 256 kts | 93° |
| 2026-05-07 06:26 | 13.54991 | 123.82286 | 5921 ft | 255 kts | 93° |
| 2026-05-07 06:26 | 13.54883 | 123.84095 | 5594 ft | 254 kts | 93° |
| 2026-05-07 06:26 | 13.54773 | 123.85925 | 5263 ft | 253 kts | 93° |
| 2026-05-07 06:26 | 13.54666 | 123.87717 | 4942 ft | 252 kts | 93° |
| 2026-05-07 06:27 | 13.54559 | 123.89510 | 4617 ft | 250 kts | 93° |
| 2026-05-07 06:27 | 13.54450 | 123.91323 | 4287 ft | 249 kts | 93° |
| 2026-05-07 06:27 | 13.54344 | 123.93085 | 3972 ft | 248 kts | 93° |
| 2026-05-07 06:27 | 13.54237 | 123.94861 | 3697 ft | 244 kts | 93° |
| 2026-05-07 06:28 | 13.54135 | 123.96572 | 3484 ft | 237 kts | 93° |
| 2026-05-07 06:28 | 13.54035 | 123.98231 | 3414 ft | 225 kts | 93° |
| 2026-05-07 06:28 | 13.53940 | 123.99789 | 3361 ft | 212 kts | 93° |
| 2026-05-07 06:28 | 13.53851 | 124.01254 | 3314 ft | 199 kts | 93° |
| 2026-05-07 06:29 | 13.53765 | 124.02666 | 3256 ft | 196 kts | 93° |
| 2026-05-07 06:29 | 13.53681 | 124.04063 | 3141 ft | 196 kts | 92° |
| 2026-05-07 06:29 | 13.53597 | 124.05456 | 3097 ft | 190 kts | 92° |
| 2026-05-07 06:29 | 13.53516 | 124.06783 | 2920 ft | 181 kts | 92° |
| 2026-05-07 06:30 | 13.53437 | 124.08092 | 2654 ft | 177 kts | 92° |
| 2026-05-07 06:30 | 13.53362 | 124.09343 | 2359 ft | 169 kts | 92° |
| 2026-05-07 06:30 | 13.53291 | 124.10511 | 2103 ft | 160 kts | 92° |
| 2026-05-07 06:30 | 13.53222 | 124.11652 | 1892 ft | 160 kts | 92° |
| 2026-05-07 06:31 | 13.53381 | 124.12770 | 1695 ft | 152 kts | 66° |
| 2026-05-07 06:31 | 13.53866 | 124.13669 | 1478 ft | 139 kts | 60° |
| 2026-05-07 06:31 | 13.54354 | 124.14507 | 1302 ft | 136 kts | 60° |
| 2026-05-07 06:31 | 13.54842 | 124.15352 | 1140 ft | 136 kts | 61° |
| 2026-05-07 06:32 | 13.55317 | 124.16188 | 965 ft | 135 kts | 60° |
| 2026-05-07 06:32 | 13.55790 | 124.17025 | 797 ft | 135 kts | 61° |
| 2026-05-07 06:32 | 13.56257 | 124.17862 | 621 ft | 134 kts | 62° |
| 2026-05-07 06:32 | 13.56710 | 124.18691 | 449 ft | 134 kts | 61° |
| 2026-05-07 06:33 | 13.57171 | 124.19521 | 248 ft | 132 kts | 61° |
| 2026-05-07 06:33 | 13.57617 | 124.20333 | 162 ft | 119 kts | 63° |
| 2026-05-07 06:33 | 13.57908 | 124.20869 | 160 ft | 43 kts | 60° |
| 2026-05-07 06:33 | 13.58017 | 124.21066 | 160 ft | 26 kts | 59° |
| 2026-05-07 06:34 | 13.58074 | 124.21166 | 160 ft | 4 kts | 59° |
| 2026-05-07 06:34 | 13.58079 | 124.21191 | 160 ft | 3 kts | 112° |
| 2026-05-07 06:34 | 13.58059 | 124.21207 | 160 ft | 4 kts | 149° |
| 2026-05-07 06:34 | 13.58034 | 124.21221 | 160 ft | 2 kts | 152° |
| 2026-05-07 06:35 | 13.58013 | 124.21229 | 160 ft | 3 kts | 170° |
| 2026-05-07 06:35 | 13.57993 | 124.21230 | 160 ft | 2 kts | 179° |
| 2026-05-07 06:35 | 13.57979 | 124.21230 | 160 ft | 1 kts | 179° |
| 2026-05-07 06:35 | 13.57975 | 124.21230 | 160 ft | 0 kts | 179° |